| time (UTC) | temp F | wind direction | speed knots | gust knots | rain 1hr in | rain 24hr in | rain mn in | humidity % | barometer mb |
| 20260505173050 | 77 | 84 | 3.5 | 9.6 | 0.00 | 0.00 | 0.00 | 48 | 1016.0 |
| 20260505171548 | 77 | 56 | 2.6 | 7.0 | 0.00 | 0.00 | 0.00 | 50 | 1016.3 |
| 20260505170045 | 76 | 113 | 3.5 | 11.3 | 0.00 | 0.00 | 0.00 | 50 | 1016.7 |
| 20260505164554 | 76 | 139 | 3.5 | 7.8 | 0.00 | 0.00 | 0.00 | 49 | 1016.9 |
| 20260505163040 | 75 | 102 | 2.6 | 10.4 | 0.00 | 0.00 | 0.00 | 52 | 1017.0 |
| 20260505161549 | 75 | 72 | 2.6 | 9.6 | 0.00 | 0.00 | 0.00 | 52 | 1017.1 |
| 20260505153034 | 73 | 75 | 3.5 | 9.6 | 0.00 | 0.00 | 0.00 | 56 | 1017.4 |
| 20260505151531 | 72 | 95 | 3.5 | 8.7 | 0.00 | 0.00 | 0.00 | 59 | 1017.5 |
| 20260505124503 | 63 | 74 | 1.7 | 3.5 | 0.00 | 0.00 | 0.00 | 73 | 1017.3 |
| 20260505123101 | 62 | 104 | 0.9 | 2.6 | 0.00 | 0.00 | 0.00 | 75 | 1017.1 |
| 20260505121557 | 60 | 98 | 0.0 | 1.7 | 0.00 | 0.00 | 0.00 | 76 | 1017.1 |
| 20260505120105 | 59 | 88 | 0.0 | 1.7 | 0.00 | 0.00 | 0.00 | 77 | 1017.1 |
| 20260505114555 | 57 | 141 | 0.0 | 0.0 | 0.00 | 0.00 | 0.00 | 80 | 1017.1 |
| 20260505113112 | 54 | 141 | 0.0 | 0.0 | 0.00 | 0.00 | 0.00 | 83 | 1017.0 |
| 20260505111552 | 52 | 141 | 0.0 | 0.0 | 0.00 | 0.00 | 0.00 | 85 | 1016.8 |
| 20260505101546 | 50 | 142 | 0.0 | 0.0 | 0.00 | 0.00 | 0.00 | 87 | 1016.2 |
| 20260505100046 | 50 | 174 | 0.0 | 0.0 | 0.00 | 0.00 | 0.00 | 86 | 1016.2 |
| 20260505094544 | 50 | 175 | 0.0 | 0.0 | 0.00 | 0.00 | 0.00 | 86 | 1016.1 |
| 20260505093048 | 50 | 111 | 0.0 | 0.0 | 0.00 | 0.00 | 0.00 | 86 | 1016.1 |
| 20260505091541 | 50 | 110 | 0.0 | 0.0 | 0.00 | 0.00 | 0.00 | 85 | 1015.8 |
| 20260505090039 | 51 | 110 | 0.0 | 0.0 | 0.00 | 0.00 | 0.00 | 84 | 1015.8 |
| 20260505084545 | 51 | 110 | 0.0 | 0.0 | 0.00 | 0.00 | 0.00 | 84 | 1015.6 |
| 20260505083042 | 52 | 110 | 0.0 | 0.0 | 0.00 | 0.00 | 0.00 | 84 | 1015.5 |
| 20260505081533 | 52 | 110 | 0.0 | 0.0 | 0.00 | 0.00 | 0.00 | 82 | 1015.4 |
| 20260505080030 | 53 | 110 | 0.0 | 0.0 | 0.00 | 0.00 | 0.00 | 81 | 1015.3 |
| 20260505074528 | 54 | 110 | 0.0 | 0.0 | 0.00 | 0.00 | 0.00 | 79 | 1015.3 |
| 20260505073027 | 54 | 110 | 0.0 | 0.9 | 0.00 | 0.00 | 0.00 | 78 | 1015.3 |
| 20260505071524 | 55 | 77 | 0.0 | 0.0 | 0.00 | 0.00 | 0.00 | 77 | 1015.2 |
| 20260505070023 | 55 | 80 | 0.0 | 1.7 | 0.00 | 0.00 | 0.00 | 75 | 1015.4 |
| 20260505064521 | 56 | 104 | 0.0 | 1.7 | 0.00 | 0.00 | 0.00 | 74 | 1015.4 |
| 20260505063025 | 56 | 58 | 0.0 | 2.6 | 0.00 | 0.00 | 0.00 | 74 | 1015.5 |
| 20260505061520 | 56 | 111 | 0.0 | 0.9 | 0.00 | 0.00 | 0.00 | 75 | 1015.7 |
| 20260505060013 | 56 | 102 | 0.0 | 0.0 | 0.00 | 0.00 | 0.00 | 74 | 1015.7 |
| 20260505054511 | 56 | 102 | 0.0 | 0.9 | 0.00 | 0.00 | 0.00 | 73 | 1015.8 |
| 20260505053008 | 57 | 103 | 0.0 | 0.9 | 0.00 | 0.00 | 0.00 | 72 | 1016.0 |
| 20260505051510 | 58 | 99 | 0.0 | 0.0 | 0.00 | 0.00 | 0.00 | 71 | 1016.2 |
| 20260505041558 | 60 | 101 | 0.9 | 1.7 | 0.00 | 0.00 | 0.00 | 68 | 1016.2 |
| 20260505040054 | 61 | 86 | 0.0 | 1.7 | 0.00 | 0.00 | 0.00 | 67 | 1016.1 |
| 20260505034614 | 62 | 96 | 0.9 | 2.6 | 0.00 | 0.00 | 0.00 | 65 | 1016.3 |
| 20260505033056 | 63 | 103 | 0.9 | 3.5 | 0.00 | 0.00 | 0.00 | 64 | 1016.3 |
| 20260505031555 | 63 | 92 | 0.9 | 4.3 | 0.00 | 0.00 | 0.00 | 63 | 1016.3 |
| 20260505030053 | 64 | 97 | 1.7 | 5.2 | 0.00 | 0.00 | 0.00 | 62 | 1016.3 |
| 20260505024551 | 64 | 82 | 1.7 | 4.3 | 0.00 | 0.00 | 0.00 | 62 | 1016.2 |
| 20260505023050 | 65 | 117 | 0.9 | 4.3 | 0.00 | 0.00 | 0.00 | 61 | 1016.2 |
| 20260505021551 | 65 | 65 | 0.9 | 6.1 | 0.00 | 0.00 | 0.00 | 60 | 1016.1 |
| 20260505020049 | 66 | 72 | 3.5 | 11.3 | 0.00 | 0.00 | 0.00 | 59 | 1016.0 |
| 20260505014549 | 66 | 103 | 1.7 | 7.0 | 0.00 | 0.00 | 0.00 | 60 | 1015.9 |
| 20260505013049 | 67 | 97 | 1.7 | 3.5 | 0.00 | 0.00 | 0.00 | 59 | 1015.8 |
| 20260505011606 | 68 | 75 | 3.5 | 7.0 | 0.00 | 0.00 | 0.00 | 56 | 1015.5 |
| 20260505010049 | 69 | 95 | 2.6 | 8.7 | 0.00 | 0.00 | 0.00 | 55 | 1015.3 |
| 20260505004546 | 69 | 77 | 3.5 | 8.7 | 0.00 | 0.00 | 0.00 | 54 | 1015.1 |
| 20260505003047 | 70 | 125 | 3.5 | 7.8 | 0.00 | 0.00 | 0.00 | 53 | 1014.8 |
| 20260505001551 | 70 | 73 | 4.3 | 7.0 | 0.00 | 0.00 | 0.00 | 49 | 1014.7 |
| 20260505000058 | 72 | 97 | 0.0 | 1.7 | 0.00 | 0.00 | 0.00 | 47 | 1014.4 |
| 20260504234543 | 73 | 129 | 0.0 | 2.6 | 0.00 | 0.00 | 0.00 | 43 | 1014.3 |
| 20260504233057 | 74 | 65 | 1.7 | 6.1 | 0.00 | 0.00 | 0.00 | 41 | 1014.3 |
| 20260504231541 | 75 | 124 | 2.6 | 6.1 | 0.00 | 0.00 | 0.00 | 40 | 1014.3 |
| 20260504230040 | 75 | 129 | 1.7 | 6.1 | 0.00 | 0.00 | 0.00 | 37 | 1014.2 |
| 20260504224542 | 76 | 55 | 3.5 | 7.0 | 0.00 | 0.00 | 0.00 | 36 | 1014.1 |
| 20260504223038 | 76 | 108 | 1.7 | 9.6 | 0.00 | 0.00 | 0.00 | 36 | 1014.2 |
| 20260504221537 | 76 | 124 | 4.3 | 9.6 | 0.00 | 0.00 | 0.00 | 35 | 1014.1 |
| 20260504220037 | 76 | 84 | 3.5 | 10.4 | 0.00 | 0.00 | 0.00 | 36 | 1014.2 |
| 20260504214535 | 77 | 80 | 5.2 | 11.3 | 0.00 | 0.00 | 0.00 | 35 | 1014.1 |
| 20260504213037 | 77 | 96 | 4.3 | 8.7 | 0.00 | 0.00 | 0.00 | 35 | 1014.0 |
| 20260504211532 | 77 | 152 | 2.6 | 9.6 | 0.00 | 0.00 | 0.00 | 35 | 1014.0 |
| 20260504210032 | 77 | 96 | 3.5 | 12.2 | 0.00 | 0.00 | 0.00 | 33 | 1014.1 |
| 20260504204529 | 77 | 98 | 5.2 | 9.6 | 0.00 | 0.00 | 0.00 | 32 | 1014.2 |
| 20260504203028 | 78 | 75 | 3.5 | 7.0 | 0.00 | 0.00 | 0.00 | 34 | 1014.4 |
| 20260504201526 | 77 | 141 | 3.5 | 11.3 | 0.00 | 0.00 | 0.00 | 35 | 1014.6 |
| 20260504200023 | 77 | 89 | 4.3 | 7.8 | 0.00 | 0.00 | 0.00 | 35 | 1014.7 |
| 20260504194527 | 77 | 101 | 4.3 | 8.7 | 0.00 | 0.00 | 0.00 | 35 | 1014.9 |
| 20260504193018 | 76 | 150 | 4.3 | 8.7 | 0.00 | 0.00 | 0.00 | 35 | 1015.0 |
| 20260504191519 | 76 | 64 | 6.1 | 9.6 | 0.00 | 0.00 | 0.00 | 35 | 1015.2 |
| 20260504190018 | 76 | 39 | 5.2 | 10.4 | 0.00 | 0.00 | 0.00 | 37 | 1015.3 |
| 20260504184512 | 76 | 188 | 2.6 | 8.7 | 0.00 | 0.00 | 0.00 | 38 | 1015.5 |
| 20260504183011 | 76 | 79 | 3.5 | 9.6 | 0.00 | 0.00 | 0.00 | 38 | 1015.8 |
| 20260504181508 | 75 | 61 | 3.5 | 9.6 | 0.00 | 0.00 | 0.00 | 37 | 1016.0 |
| 20260504180007 | 75 | 84 | 2.6 | 9.6 | 0.00 | 0.00 | 0.00 | 37 | 1016.0 |
| 20260504174509 | 75 | 76 | 3.5 | 9.6 | 0.00 | 0.00 | 0.00 | 38 | 1016.0 |